createdAt,value
2023-07-31T00:00:03.471Z,97131.13
2023-07-31T00:02:50.486Z,97130.59
2023-07-31T00:05:37.378Z,97128.16
2023-07-31T00:08:24.305Z,97123.78
2023-07-31T00:11:11.164Z,97128.09
2023-07-31T00:13:59.271Z,97123.44
2023-07-31T00:16:46.132Z,97134.75
2023-07-31T00:19:32.994Z,97135.03
2023-07-31T00:22:19.892Z,97142.25
2023-07-31T00:25:07.526Z,97134.91
2023-07-31T00:27:54.531Z,97140.25
2023-07-31T00:30:41.437Z,97138.06
2023-07-31T00:33:28.435Z,97138.06
2023-07-31T00:36:15.299Z,97144.78
2023-07-31T00:39:02.204Z,97130.69
2023-07-31T00:41:49.036Z,97140.97
2023-07-31T00:44:35.971Z,97128.75
2023-07-31T00:47:22.856Z,97134.66
2023-07-31T00:50:10.230Z,97135.41
2023-07-31T00:52:57.131Z,97130.78
2023-07-31T00:55:44.615Z,97119.13
2023-07-31T00:58:31.898Z,97121.00
2023-07-31T01:01:18.757Z,97120.47
2023-07-31T01:04:05.657Z,97118.25
2023-07-31T01:07:40.438Z,97119.34
2023-07-31T01:10:39.444Z,97115.25
2023-07-31T01:13:26.286Z,97121.97
2023-07-31T01:16:13.329Z,97110.03
2023-07-31T01:19:00.298Z,97112.63
2023-07-31T01:22:13.403Z,97110.44
2023-07-31T01:25:22.352Z,97100.63
2023-07-31T01:28:12.242Z,97097.38
2023-07-31T01:31:00.455Z,97100.56
2023-07-31T01:33:47.471Z,97101.59
2023-07-31T01:36:34.671Z,97101.28
2023-07-31T01:39:22.106Z,97093.13
2023-07-31T01:42:08.961Z,97097.88
2023-07-31T01:44:55.832Z,97102.47
2023-07-31T01:47:42.748Z,97093.28
2023-07-31T01:50:29.605Z,97094.94
2023-07-31T01:53:16.492Z,97079.78
2023-07-31T01:56:03.415Z,97083.84
2023-07-31T01:58:50.289Z,97089.47
2023-07-31T02:01:37.200Z,97083.50
2023-07-31T02:04:24.169Z,97078.34
2023-07-31T02:07:10.995Z,97081.31
2023-07-31T02:09:57.910Z,97074.44
2023-07-31T02:12:44.854Z,97073.88
2023-07-31T02:15:31.983Z,97070.84
2023-07-31T02:18:18.860Z,97068.09
2023-07-31T02:21:05.714Z,97064.00
2023-07-31T02:23:52.533Z,97056.66
2023-07-31T02:26:39.527Z,97050.66
2023-07-31T02:29:26.595Z,97054.09
2023-07-31T02:32:13.492Z,97055.66
2023-07-31T02:35:00.706Z,97053.94
2023-07-31T02:37:47.600Z,97060.66
2023-07-31T02:40:34.537Z,97055.72
2023-07-31T02:43:21.390Z,97061.34
2023-07-31T02:46:08.676Z,97047.88
2023-07-31T02:48:55.577Z,97046.47
2023-07-31T02:51:42.462Z,97043.78
2023-07-31T02:54:29.369Z,97044.84
2023-07-31T02:57:17.397Z,97053.19
2023-07-31T03:00:07.334Z,97047.22
2023-07-31T03:02:54.340Z,97046.66
2023-07-31T03:05:41.314Z,97044.19
2023-07-31T03:08:28.287Z,97041.75
2023-07-31T03:11:15.251Z,97050.31
2023-07-31T03:14:02.317Z,97044.59
2023-07-31T03:16:49.878Z,97052.38
2023-07-31T03:19:36.785Z,97052.84
2023-07-31T03:22:23.640Z,97050.91
2023-07-31T03:25:11.491Z,97052.44
2023-07-31T03:27:58.381Z,97062.09
2023-07-31T03:30:46.253Z,97057.72
2023-07-31T03:33:33.102Z,97059.41
2023-07-31T03:36:19.946Z,97054.47
2023-07-31T03:39:06.806Z,97052.28
2023-07-31T03:41:53.643Z,97053.56
2023-07-31T03:44:40.520Z,97044.91
2023-07-31T03:47:27.656Z,97046.78
2023-07-31T03:50:14.904Z,97054.84
2023-07-31T03:53:01.836Z,97054.31
2023-07-31T03:55:48.705Z,97049.97
2023-07-31T03:58:36.979Z,97051.00
2023-07-31T04:01:23.884Z,97047.50
2023-07-31T04:04:10.690Z,97053.72
2023-07-31T04:06:57.563Z,97052.34
2023-07-31T04:09:44.410Z,97050.13
2023-07-31T04:12:31.303Z,97045.78
2023-07-31T04:15:18.144Z,97044.97
2023-07-31T04:18:05.912Z,97044.41
2023-07-31T04:20:52.856Z,97041.69
2023-07-31T04:23:39.672Z,97037.13
2023-07-31T04:26:26.648Z,97037.84
2023-07-31T04:29:13.485Z,97038.56
2023-07-31T04:32:00.327Z,97038.47
2023-07-31T04:34:47.169Z,97034.16
2023-07-31T04:37:34.067Z,97034.16
2023-07-31T04:40:20.986Z,97034.16
2023-07-31T04:43:07.994Z,97036.50
2023-07-31T04:45:55.240Z,97031.81
2023-07-31T04:48:42.100Z,97031.81
2023-07-31T04:51:29.012Z,97027.03
2023-07-31T04:54:18.468Z,97022.47
2023-07-31T04:57:06.064Z,97015.19
2023-07-31T04:59:52.932Z,97016.59
2023-07-31T05:02:39.905Z,97009.09
2023-07-31T05:05:26.771Z,97022.91
2023-07-31T05:08:13.628Z,97007.56
2023-07-31T05:11:00.464Z,97023.56
2023-07-31T05:13:47.538Z,97021.44
2023-07-31T05:16:34.439Z,97021.78
2023-07-31T05:19:21.299Z,97017.78
2023-07-31T05:22:08.159Z,97021.13
2023-07-31T05:24:55.389Z,97001.56
2023-07-31T05:27:42.304Z,97002.28
2023-07-31T05:30:31.443Z,96995.97
2023-07-31T05:33:18.324Z,97009.13
2023-07-31T05:36:05.330Z,97012.56
2023-07-31T05:38:52.303Z,97009.53
2023-07-31T05:41:39.195Z,97010.84
2023-07-31T05:44:25.982Z,97011.81
2023-07-31T05:47:12.818Z,97011.53
2023-07-31T05:49:59.678Z,97014.13
2023-07-31T05:52:46.542Z,97010.28
2023-07-31T05:55:33.438Z,97026.44
2023-07-31T05:58:20.363Z,97020.47
2023-07-31T06:01:07.237Z,97018.03
2023-07-31T06:03:54.120Z,97018.03
2023-07-31T06:06:41.357Z,97014.19
2023-07-31T06:09:28.365Z,97018.50
2023-07-31T06:12:15.351Z,97017.72
2023-07-31T06:15:03.779Z,97005.28
2023-07-31T06:17:50.661Z,97014.19
2023-07-31T06:20:37.609Z,97014.41
2023-07-31T06:23:24.455Z,97007.19
2023-07-31T06:26:11.358Z,97015.25
2023-07-31T06:28:58.215Z,97013.38
2023-07-31T06:31:45.305Z,97014.19
2023-07-31T06:34:32.346Z,97014.19
2023-07-31T06:37:19.183Z,97014.75
2023-07-31T06:40:08.416Z,97012.06
2023-07-31T06:42:55.293Z,97007.50
2023-07-31T06:45:42.299Z,96994.34
2023-07-31T06:48:29.275Z,96990.59
2023-07-31T06:51:16.101Z,96997.59
2023-07-31T06:54:03.015Z,96995.72
2023-07-31T06:56:49.860Z,96987.41
2023-07-31T06:59:36.796Z,96982.84
2023-07-31T07:02:23.665Z,96990.44
2023-07-31T07:05:10.689Z,96978.91
2023-07-31T07:07:57.592Z,96992.94
2023-07-31T07:10:44.471Z,96991.63
2023-07-31T07:13:31.300Z,96991.41
2023-07-31T07:16:18.280Z,96987.66
2023-07-31T07:19:05.612Z,96995.47
2023-07-31T07:21:52.526Z,96996.88
2023-07-31T07:24:39.341Z,96987.72
2023-07-31T07:27:26.277Z,96983.97
2023-07-31T07:30:13.190Z,96990.72
2023-07-31T07:33:00.029Z,96991.31
2023-07-31T07:35:46.884Z,96990.00
2023-07-31T07:38:33.909Z,96995.75
2023-07-31T07:41:20.761Z,96989.00
2023-07-31T07:44:09.140Z,96986.91
2023-07-31T07:46:56.177Z,96979.97
2023-07-31T07:49:44.668Z,96978.13
2023-07-31T07:52:33.292Z,96984.94
2023-07-31T07:55:20.122Z,96985.25
2023-07-31T07:58:06.934Z,96984.50
2023-07-31T08:00:53.780Z,96989.41
2023-07-31T08:03:40.658Z,96993.50
2023-07-31T08:06:27.599Z,96990.53
2023-07-31T08:09:14.741Z,96991.13
2023-07-31T08:12:04.436Z,96996.56
2023-07-31T08:14:51.404Z,96996.66
2023-07-31T08:17:38.377Z,97007.19
2023-07-31T08:20:25.232Z,96999.41
2023-07-31T08:23:12.109Z,97001.63
2023-07-31T08:25:59.081Z,96994.91
2023-07-31T08:28:46.105Z,97006.84
2023-07-31T08:31:32.954Z,96993.06
2023-07-31T08:34:20.001Z,96992.03
2023-07-31T08:37:06.851Z,96988.25
2023-07-31T08:39:54.675Z,96991.50
2023-07-31T08:42:48.421Z,96997.47
2023-07-31T08:45:35.684Z,96988.31
2023-07-31T08:48:23.977Z,96985.38
2023-07-31T08:51:10.844Z,96985.91
2023-07-31T08:53:58.612Z,96988.38
2023-07-31T08:56:45.609Z,96984.34
2023-07-31T08:59:32.911Z,96983.28
2023-07-31T09:02:20.034Z,96973.31
2023-07-31T09:05:08.731Z,96965.50
2023-07-31T09:07:55.503Z,96967.13
2023-07-31T09:10:43.679Z,96969.34
2023-07-31T09:13:31.169Z,96953.13
2023-07-31T09:16:18.023Z,96956.69
2023-07-31T09:19:06.341Z,96961.03
2023-07-31T09:21:53.504Z,96950.53
2023-07-31T09:24:40.380Z,96950.88
2023-07-31T09:27:27.241Z,96940.63
2023-07-31T09:30:14.415Z,96930.38
2023-07-31T09:33:10.090Z,96934.47
2023-07-31T09:35:59.805Z,96933.44
2023-07-31T09:38:46.758Z,96931.03
2023-07-31T09:41:37.558Z,96923.22
2023-07-31T09:44:44.208Z,96928.94
2023-07-31T09:47:31.857Z,96924.66
2023-07-31T09:50:19.231Z,96926.03
2023-07-31T09:53:07.074Z,96925.25
2023-07-31T09:55:54.081Z,96926.38
2023-07-31T09:58:40.928Z,96922.34
2023-07-31T10:01:27.871Z,96922.63
2023-07-31T10:04:15.383Z,96913.50
2023-07-31T10:07:04.439Z,96908.13
2023-07-31T10:09:52.674Z,96904.63
2023-07-31T10:12:39.881Z,96907.13
2023-07-31T10:15:27.431Z,96895.53
2023-07-31T10:18:14.904Z,96900.97
2023-07-31T10:21:02.947Z,96876.69
2023-07-31T10:23:50.619Z,96883.50
2023-07-31T10:26:38.944Z,96877.84
2023-07-31T10:29:25.965Z,96879.78
2023-07-31T10:32:12.988Z,96879.00
2023-07-31T10:35:00.017Z,96875.22
2023-07-31T10:37:46.854Z,96872.56
2023-07-31T10:40:33.715Z,96879.88
2023-07-31T10:43:31.192Z,96875.56
2023-07-31T10:46:18.103Z,96866.09
2023-07-31T10:49:05.013Z,96862.88
2023-07-31T10:51:51.828Z,96867.75
2023-07-31T10:54:39.780Z,96863.44
2023-07-31T10:57:26.720Z,96861.53
2023-07-31T11:00:25.640Z,96871.88
2023-07-31T11:03:17.655Z,96862.66
2023-07-31T11:06:05.137Z,96855.09
2023-07-31T11:08:52.232Z,96853.78
2023-07-31T11:11:39.075Z,96848.91
2023-07-31T11:14:26.242Z,96853.78
2023-07-31T11:17:13.102Z,96846.22
2023-07-31T11:19:59.937Z,96841.38
2023-07-31T11:22:47.702Z,96834.88
2023-07-31T11:25:35.034Z,96830.81
2023-07-31T11:28:22.066Z,96834.88
2023-07-31T11:31:10.304Z,96837.06
2023-07-31T11:34:07.260Z,96824.31
2023-07-31T11:36:57.045Z,96825.91
2023-07-31T11:39:43.888Z,96818.28
2023-07-31T11:42:30.737Z,96807.94
2023-07-31T11:45:17.601Z,96801.13
2023-07-31T11:48:04.711Z,96797.59
2023-07-31T11:50:52.594Z,96793.22
2023-07-31T11:53:43.801Z,96797.59
2023-07-31T11:56:30.908Z,96806.25
2023-07-31T11:59:18.051Z,96789.16
2023-07-31T12:02:05.108Z,96794.59
2023-07-31T12:04:52.260Z,96785.84
2023-07-31T12:07:51.495Z,96777.13
2023-07-31T12:10:38.794Z,96775.22
2023-07-31T12:13:30.046Z,96767.63
2023-07-31T12:16:16.903Z,96765.66
2023-07-31T12:19:04.200Z,96762.88
2023-07-31T12:21:51.041Z,96761.25
2023-07-31T12:24:39.277Z,96762.88
2023-07-31T12:27:34.178Z,96768.06
2023-07-31T12:30:32.458Z,96767.53
2023-07-31T12:33:20.067Z,96765.06
2023-07-31T12:36:15.969Z,96765.00
2023-07-31T12:39:03.041Z,96766.81
2023-07-31T12:41:50.183Z,96762.19
2023-07-31T12:44:37.103Z,96754.53
2023-07-31T12:47:24.123Z,96753.97
2023-07-31T12:50:11.258Z,96749.31
2023-07-31T12:52:58.641Z,96742.19
2023-07-31T12:55:45.521Z,96750.59
2023-07-31T12:58:32.508Z,96740.81
2023-07-31T13:01:19.502Z,96736.41
2023-07-31T13:04:06.447Z,96728.50
2023-07-31T13:06:53.297Z,96733.06
2023-07-31T13:09:40.128Z,96720.81
2023-07-31T13:12:27.025Z,96719.72
2023-07-31T13:15:13.925Z,96715.63
2023-07-31T13:18:01.042Z,96705.81
2023-07-31T13:20:47.977Z,96695.19
2023-07-31T13:23:34.787Z,96695.41
2023-07-31T13:26:21.693Z,96689.69
2023-07-31T13:29:13.034Z,96676.59
2023-07-31T13:32:00.051Z,96688.03
2023-07-31T13:34:47.492Z,96677.38
2023-07-31T13:37:34.407Z,96675.16
2023-07-31T13:40:21.333Z,96677.84
2023-07-31T13:43:08.178Z,96678.88
2023-07-31T13:45:58.124Z,96663.06
2023-07-31T13:48:44.943Z,96661.69
2023-07-31T13:51:31.845Z,96661.91
2023-07-31T13:54:19.451Z,96659.72
2023-07-31T13:57:06.677Z,96655.34
2023-07-31T13:59:53.552Z,96656.16
2023-07-31T14:02:40.554Z,96652.63
2023-07-31T14:05:27.482Z,96653.75
2023-07-31T14:08:14.338Z,96652.72
2023-07-31T14:11:01.153Z,96648.31
2023-07-31T14:13:47.968Z,96648.78
2023-07-31T14:16:34.810Z,96638.66
2023-07-31T14:19:21.822Z,96636.16
2023-07-31T14:22:11.502Z,96639.81
2023-07-31T14:24:58.896Z,96631.72
2023-07-31T14:27:45.794Z,96630.94
2023-07-31T14:30:32.658Z,96628.53
2023-07-31T14:33:19.527Z,96629.25
2023-07-31T14:36:06.433Z,96627.56
2023-07-31T14:38:53.261Z,96621.44
2023-07-31T14:41:40.130Z,96628.94
2023-07-31T14:44:27.034Z,96629.97
2023-07-31T14:47:13.856Z,96623.94
2023-07-31T14:50:01.267Z,96620.66
2023-07-31T14:52:49.169Z,96620.06
2023-07-31T14:55:36.020Z,96616.53
2023-07-31T14:58:22.973Z,96614.63
2023-07-31T15:01:09.838Z,96618.97
2023-07-31T15:03:56.763Z,96617.84
2023-07-31T15:06:43.748Z,96616.75
2023-07-31T15:09:30.777Z,96607.47
2023-07-31T15:12:17.981Z,96600.13
2023-07-31T15:15:05.998Z,96591.94
2023-07-31T15:17:53.053Z,96590.84
2023-07-31T15:20:40.049Z,96597.13
2023-07-31T15:23:27.545Z,96589.75
2023-07-31T15:26:15.598Z,96592.16
2023-07-31T15:29:12.615Z,96582.88
2023-07-31T15:31:59.993Z,96583.41
2023-07-31T15:34:46.904Z,96580.69
2023-07-31T15:37:33.853Z,96581.19
2023-07-31T15:40:20.757Z,96587.47
2023-07-31T15:43:07.592Z,96587.97
2023-07-31T15:45:54.481Z,96577.88
2023-07-31T15:48:41.380Z,96579.78
2023-07-31T15:51:28.254Z,96572.97
2023-07-31T15:54:15.224Z,96569.13
2023-07-31T15:57:02.113Z,96560.16
2023-07-31T15:59:48.964Z,96566.41
2023-07-31T16:02:36.320Z,96552.50
2023-07-31T16:05:23.262Z,96553.31
2023-07-31T16:08:10.098Z,96559.13
2023-07-31T16:10:57.211Z,96560.81
2023-07-31T16:13:44.132Z,96556.91
2023-07-31T16:16:31.179Z,96561.38
2023-07-31T16:19:18.081Z,96557.97
2023-07-31T16:22:05.198Z,96557.03
2023-07-31T16:24:52.289Z,96562.59
2023-07-31T16:27:39.167Z,96552.94
2023-07-31T16:30:26.149Z,96548.19
2023-07-31T16:33:13.247Z,96550.00
2023-07-31T16:36:00.277Z,96542.84
2023-07-31T16:38:47.162Z,96545.78
2023-07-31T16:41:34.014Z,96547.09
2023-07-31T16:44:21.794Z,96544.91
2023-07-31T16:47:08.608Z,96548.13
2023-07-31T16:49:55.499Z,96543.47
2023-07-31T16:52:42.407Z,96542.38
2023-07-31T16:55:30.245Z,96540.44
2023-07-31T16:58:17.278Z,96534.69
2023-07-31T17:01:04.734Z,96530.03
2023-07-31T17:03:51.830Z,96535.50
2023-07-31T17:06:38.876Z,96532.47
2023-07-31T17:09:25.915Z,96528.16
2023-07-31T17:12:12.949Z,96519.75
2023-07-31T17:14:59.810Z,96528.81
2023-07-31T17:17:46.766Z,96525.28
2023-07-31T17:20:33.685Z,96522.88
2023-07-31T17:23:20.610Z,96514.41
2023-07-31T17:26:08.825Z,96525.28
2023-07-31T17:28:55.708Z,96518.72
2023-07-31T17:31:43.013Z,96513.59
2023-07-31T17:34:30.106Z,96523.38
2023-07-31T17:37:17.085Z,96522.56
2023-07-31T17:40:04.975Z,96519.03
2023-07-31T17:42:51.878Z,96511.97
2023-07-31T17:45:38.742Z,96509.25
2023-07-31T17:48:25.602Z,96502.16
2023-07-31T17:51:12.520Z,96502.16
2023-07-31T17:53:59.462Z,96495.91
2023-07-31T17:56:46.353Z,96504.09
2023-07-31T17:59:33.234Z,96494.31
2023-07-31T18:02:20.210Z,96505.22
2023-07-31T18:05:07.664Z,96500.06
2023-07-31T18:07:54.615Z,96502.28
2023-07-31T18:10:45.871Z,96505.81
2023-07-31T18:13:32.748Z,96511.56
2023-07-31T18:16:19.564Z,96500.66
2023-07-31T18:19:06.457Z,96501.78
2023-07-31T18:21:53.310Z,96506.72
2023-07-31T18:24:40.220Z,96505.91
2023-07-31T18:27:27.149Z,96508.66
2023-07-31T18:30:15.374Z,96512.47
2023-07-31T18:33:03.630Z,96505.41
2023-07-31T18:35:50.454Z,96495.94
2023-07-31T18:38:37.376Z,96491.88
2023-07-31T18:41:24.240Z,96484.00
2023-07-31T18:44:11.174Z,96479.66
2023-07-31T18:46:58.107Z,96490.56
2023-07-31T18:49:44.991Z,96496.31
2023-07-31T18:52:32.596Z,96500.13
2023-07-31T18:55:19.536Z,96492.28
2023-07-31T18:58:06.360Z,96495.81
2023-07-31T19:00:53.192Z,96488.44
2023-07-31T19:03:40.361Z,96490.34
2023-07-31T19:06:27.557Z,96493.88
2023-07-31T19:09:14.747Z,96496.59
2023-07-31T19:12:01.674Z,96489.22
2023-07-31T19:14:48.701Z,96485.72
2023-07-31T19:17:37.293Z,96479.16
2023-07-31T19:20:24.203Z,96494.69
2023-07-31T19:23:11.089Z,96489.22
2023-07-31T19:25:57.947Z,96494.69
2023-07-31T19:28:44.813Z,96492.28
2023-07-31T19:31:31.671Z,96485.72
2023-07-31T19:34:18.645Z,96485.72
2023-07-31T19:37:07.139Z,96488.44
2023-07-31T19:39:54.766Z,96478.66
2023-07-31T19:42:41.708Z,96488.75
2023-07-31T19:45:28.633Z,96480.56
2023-07-31T19:48:16.716Z,96482.50
2023-07-31T19:51:03.858Z,96482.78
2023-07-31T19:53:50.751Z,96482.78
2023-07-31T19:56:37.949Z,96473.00
2023-07-31T19:59:26.420Z,96467.88
2023-07-31T20:02:13.313Z,96475.50
2023-07-31T20:05:00.471Z,96464.94
2023-07-31T20:07:47.424Z,96462.81
2023-07-31T20:10:35.390Z,96473.19
2023-07-31T20:13:22.272Z,96456.63
2023-07-31T20:16:09.546Z,96462.66
2023-07-31T20:18:56.468Z,96458.63
2023-07-31T20:21:43.375Z,96457.50
2023-07-31T20:24:30.248Z,96452.88
2023-07-31T20:27:22.464Z,96445.81
2023-07-31T20:30:09.649Z,96439.84
2023-07-31T20:32:57.777Z,96435.50
2023-07-31T20:35:44.781Z,96426.03
2023-07-31T20:38:31.770Z,96433.19
2023-07-31T20:41:18.780Z,96426.41
2023-07-31T20:44:05.779Z,96422.06
2023-07-31T20:46:52.828Z,96418.34
2023-07-31T20:49:39.730Z,96419.75
2023-07-31T20:52:26.689Z,96402.13
2023-07-31T20:55:13.723Z,96413.59
2023-07-31T20:58:00.622Z,96419.03
2023-07-31T21:00:47.539Z,96415.22
2023-07-31T21:03:35.041Z,96430.44
2023-07-31T21:06:22.461Z,96423.69
2023-07-31T21:09:09.349Z,96417.44
2023-07-31T21:11:56.401Z,96418.03
2023-07-31T21:14:43.541Z,96416.72
2023-07-31T21:17:30.390Z,96415.91
2023-07-31T21:20:17.323Z,96410.47
2023-07-31T21:23:07.794Z,96409.66
2023-07-31T21:25:54.821Z,96409.13
2023-07-31T21:28:41.751Z,96398.25
2023-07-31T21:31:28.641Z,96405.09
2023-07-31T21:34:15.523Z,96390.66
2023-07-31T21:37:02.619Z,96397.22
2023-07-31T21:39:49.546Z,96391.56
2023-07-31T21:42:38.171Z,96384.31
2023-07-31T21:45:26.909Z,96380.78
2023-07-31T21:48:13.789Z,96377.56
2023-07-31T21:51:00.811Z,96382.78
2023-07-31T21:53:49.743Z,96380.66
2023-07-31T21:56:36.652Z,96379.34
2023-07-31T21:59:23.526Z,96370.16
2023-07-31T22:02:10.533Z,96363.09
2023-07-31T22:04:57.438Z,96365.03
2023-07-31T22:07:44.315Z,96364.47
2023-07-31T22:10:31.166Z,96352.88
2023-07-31T22:13:18.011Z,96361.63
2023-07-31T22:16:06.014Z,96358.69
2023-07-31T22:18:52.971Z,96357.09
2023-07-31T22:21:40.208Z,96355.47
2023-07-31T22:24:27.217Z,96346.81
2023-07-31T22:27:15.791Z,96358.28
2023-07-31T22:30:02.662Z,96338.22
2023-07-31T22:32:49.489Z,96346.97
2023-07-31T22:35:36.357Z,96354.31
2023-07-31T22:38:23.317Z,96348.34
2023-07-31T22:41:10.148Z,96349.25
2023-07-31T22:43:57.039Z,96358.53
2023-07-31T22:46:44.117Z,96346.63
2023-07-31T22:49:31.236Z,96333.91
2023-07-31T22:52:18.074Z,96327.97
2023-07-31T22:55:05.219Z,96318.47
2023-07-31T22:57:52.191Z,96312.25
2023-07-31T23:00:39.140Z,96311.13
2023-07-31T23:03:26.015Z,96304.41
2023-07-31T23:06:12.902Z,96298.13
2023-07-31T23:08:59.819Z,96286.44
2023-07-31T23:11:46.690Z,96290.28
2023-07-31T23:14:33.549Z,96284.84
2023-07-31T23:17:20.435Z,96282.13
2023-07-31T23:20:07.818Z,96274.28
2023-07-31T23:22:54.692Z,96278.09
2023-07-31T23:25:41.583Z,96269.50
2023-07-31T23:28:28.523Z,96259.03
2023-07-31T23:31:15.402Z,96256.34
2023-07-31T23:34:02.386Z,96257.72
2023-07-31T23:36:49.337Z,96255.41
2023-07-31T23:39:36.158Z,96255.03
2023-07-31T23:42:23.145Z,96251.38
2023-07-31T23:45:11.819Z,96241.47
2023-07-31T23:48:00.505Z,96236.41
2023-07-31T23:50:47.322Z,96233.19
2023-07-31T23:53:34.247Z,96222.91
2023-07-31T23:56:21.201Z,96229.13
2023-07-31T23:59:08.378Z,96217.47
